• Join FlightAware (Why Join?)
  • Login
  • US Flag 
10:24AM EDT


 

Airport Tracker/Info


-or-


 

Live Flight TrackerFlight Track Log ✈ FLG3713 ✈ 28-Jul-2013 ✈ KCVG - KMSN

Flight Track Log - Related Links

Times and Time Zones

All times are in EDT time to prevent confusion due to time zone crossing. See the FLG3713 flight status page for this flight to view local times or setup timezone preferences in your user account.

Time Position Orientation Groundspeed Altitude Reporting Facility
EDT Latitude Longitude Course Direction KTS MPH feet Rate Location/Type
08:26PM 39.0500 -84.6833 297° West 161 185 1,500  Level Cincinnati TRACON
08:27PM 39.0500 -84.7333 270° West 169 194 3,000 2,040 Climbing Cincinnati TRACON
08:28PM 39.0500 -84.8167 270° West 249 287 5,200 2,640 Climbing Cincinnati TRACON
08:30PM 39.0458 -84.9433 268° West 261 300 9,400 2,820 Climbing Indianapolis Center
08:31PM 39.0499 -84.9914 311° West  Level FlightAware Approximate
08:31PM 39.0744 -85.0350 292° West 274 315 11,800  Level Indianapolis Center
08:32PM 39.0993 -85.0984 297° West  Level FlightAware Approximate
08:32PM 39.1103 -85.1311 296° West 295 339 13,800  Level Indianapolis Center
08:33PM 39.1469 -85.2306 295° West 307 353 15,800 1,860 Climbing Indianapolis Center
08:34PM 39.1847 -85.3322 296° West 315 362 17,700 1,560 Climbing Indianapolis Center
08:35PM 39.2275 -85.4328 299° West 320 368 19,100 1,380 Climbing Indianapolis Center
08:36PM 39.2867 -85.5228 310° West 327 376 20,600 1,560 Climbing Indianapolis Center
08:37PM 39.3697 -85.6158 319° Northwest 336 387 22,400 1,620 Climbing Indianapolis Center
08:38PM 39.4475 -85.6781 328° Northwest 332 382 24,000 1,260 Climbing Indianapolis Center
08:39PM 39.5256 -85.7389 329° Northwest 329 379 25,100 960 Climbing Indianapolis Center
08:40PM 39.6056 -85.8006 329° Northwest 334 384 26,000 420 Climbing Indianapolis Center
08:41PM 39.6881 -85.8653 329° Northwest 348 400 26,000  Level Indianapolis Center
08:42PM 39.7772 -85.9361 329° Northwest 377 434 26,000  Level Indianapolis Center
08:43PM 39.8878 -86.0239 329° Northwest 393 452 26,000  Level Indianapolis Center
08:44PM 39.9822 -86.0983 329° Northwest 402 463 26,000  Level Indianapolis Center
08:45PM 40.0794 -86.1750 329° Northwest 410 472 26,000  Level Indianapolis Center
08:46PM 40.1764 -86.2542 328° Northwest 413 475 26,000  Level Indianapolis Center
08:47PM 40.2753 -86.3325 329° Northwest 418 481 26,000  Level Chicago Center
08:48PM 40.3933 -86.4278 328° Northwest 417 480 26,000  Level Chicago Center
08:49PM 40.4925 -86.5078 328° Northwest 420 483 26,000  Level Chicago Center
08:50PM 40.5911 -86.5881 328° Northwest 418 481 26,000  Level Chicago Center
08:51PM 40.6903 -86.6686 328° Northwest 419 482 26,000  Level Chicago Center
08:52PM 40.8025 -86.7597 328° Northwest 417 480 26,000  Level Chicago Center
08:53PM 40.9008 -86.8400 328° Northwest 414 476 26,000  Level Chicago Center
08:54PM 41.0008 -86.9231 328° Northwest 420 483 26,000  Level Chicago Center
08:55PM 41.0986 -87.0033 328° Northwest 416 479 26,000  Level Chicago Center
08:56PM 41.1958 -87.0839 328° Northwest 413 475 26,000  Level Chicago Center
08:57PM 41.2953 -87.1678 328° Northwest 419 482 26,000  Level Chicago Center
08:58PM 41.3953 -87.2483 329° Northwest 418 481 26,000  Level Chicago Center
08:59PM 41.5128 -87.3483 328° Northwest 417 480 26,000  Level Chicago Center
09:00PM 41.6083 -87.4297 328° Northwest 409 471 26,000  Level Chicago Center
09:02PM 41.7075 -87.5136 328° Northwest 420 483 26,000  Level Chicago Center
09:03PM 41.8122 -87.6031 328° Northwest 421 484 26,000  Level Chicago Center
09:04PM 41.9036 -87.7003 322° Northwest 420 483 26,000 -480 Level Chicago Center
09:05PM 41.9897 -87.8081 317° Northwest 422 486 25,100 -960 Descending Chicago Center
09:06PM 42.0758 -87.9203 316° Northwest 428 493 24,100 -540 Descending Chicago Center
09:07PM 42.1608 -88.0322 316° Northwest 427 491 24,000 -60 Descending Chicago Center
09:08PM 42.2608 -88.1608 316° Northwest 426 490 24,000  Level Chicago Center
09:09PM 42.3469 -88.2733 316° Northwest 428 493 24,000 -960 Level Chicago Center
09:10PM 42.4333 -88.3875 316° Northwest 434 499 22,100 -2,460 Descending Chicago Center
09:11PM 42.5119 -88.4919 316° Northwest 404 465 19,000 -2,940 Descending Chicago Center
09:12PM 42.5825 -88.5858 316° Northwest 361 415 16,100 -2,520 Descending Chicago Center
09:13PM 42.6494 -88.6764 315° West 342 394 13,800 -2,280 Descending Chicago Center
09:14PM 42.7328 -88.7883 315° West 359 413 11,400 -1,860 Descending Chicago Center
09:15PM 42.8031 -88.8797 316° Northwest 350 403 10,000 -1,140 Descending Chicago Center
09:16PM 42.8567 -88.9533 315° West 282 325 9,100 -480 Descending Chicago Center
09:17PM 42.9117 -89.0278 315° West 276 318 9,100 -60 Level Chicago Center
09:18PM 42.9656 -89.1017 315° West 275 316 9,000 -1,140 Descending Chicago Center
09:19PM 42.9733 -89.1981 276° West 255 293 6,800 -2,340 Descending Chicago Center
09:20PM 42.9764 -89.2928 273° West 250 288 4,300 -2,040 Descending Chicago Center
09:21PM 43.0181 -89.3486 316° Northwest 233 268 2,700 -1,080 Descending Chicago Center
09:22PM 43.0683 -89.3453 North 197 227 2,100 -720 Descending Chicago Center
09:23PM 43.1106 -89.3447 North 172 198 1,300 -480 Descending Chicago Center
09:24PM 43.1492 -89.3444 360° North 168 193 1,200 -120 Descending Chicago Center